For quick login in and fast entrance.
M’enregistrer FAQ Connexion 
Poster un nouveau sujet Répondre au sujet  [ 2 messages ] 

Mar 12 Fév 2019 01:14

 Sortie de piste d'un Hawker Beechcraft 400A à Richmond
MessagePosté: Mar 12 Fév 2019 01:14 
Hors ligne
Grand Reporter

Inscription: Mar 30 Aoû 2005 11:38
Localisation: In the Navy !


  
home Haut
 Profil  
Répondre en citant le message  
Aider le Site avec PayPal

Mar 12 Fév 2019 01:49

 Re: Sortie de piste d'un Hawker Beechcraft 400A à Richmond
MessagePosté: Mar 12 Fév 2019 01:49 
Hors ligne
Amiral de l'Air
Avatar de l’utilisateur

Inscription: Mer 03 Juin 2009 15:15
Localisation: Près de Morlaix-Ploujean (LFRU)
Date: 11 février 2019
Heure: 10h07

Type: Hawker Beechcraft 400A
Opérateur propriétaire: Premier Beechcraft LLC
Immatriculation : N750TA
C / n / msn: RK-226

Décès: 0 / Occupants:
Autres décès: 0
Dommages: Mineur

Lieu: Richmond Airport, IN (RID / KRID) - États-Unis d'Amérique
Phase: Atterrissage

Aéroport de départ: Aéroport de Waukesha, WI (UES / KUES)
Aéroport de destination: Aéroport de Richmond, IN (RID / KRID)

Un avion d’affaires Hawker Beechcraft 400XP a quitté la piste après avoir atterri sur la piste 24 de l’aéroport municipal de Richmond, dans l’Indiana, aux États-Unis.
Le train d'atterrissage avant s'est effondré lorsque l'avion s'est immobilisé sur une route (route 227 de l'Indiana), 200 m après l'extrémité asphaltée de la piste.

Conditions météorologiques à peu près au moment de l’incident (1507Z):
KRID 111515Z AUTO 08004KT 1SM BR SCT003 OVC015 00/00 A3013 RMK AO2
KRID 111455Z AUTO 08004KT 1 / 2SM FG SCT003 OVC015 OVC015 00/00 A3012 RMK AO2

Image

_________________
Image


  
home Haut
 Profil  
Répondre en citant le message  
Afficher les messages postés depuis:  Trier par  
Poster un nouveau sujet Répondre au sujet  [ 2 messages ] 

Heures au format UTC + 1 heure [ Heure d’été ]


Qui est en ligne

Utilisateurs parcourant ce forum: Aucun utilisateur enregistré et 0 invités


Vous ne pouvez pas poster de nouveaux sujets
Vous ne pouvez pas répondre aux sujets
Vous ne pouvez pas éditer vos messages
Vous ne pouvez pas supprimer vos messages

Aller à:  
Flux RSS Flux RSS Liste des flux Liste des flux
0 Développé par phpBB® Forum Software © phpBB Group
Traduction par phpBB-fr.com
phpBB SEO